Time;durP1;ratioP1;P1;durP2;ratioP2;P2;SDS_P1;SDS_P2;PMS_P1;PMS_P2;Temp;Humidity;BMP_temperature;BMP_pressure;BME280_temperature;BME280_humidity;BME280_pressure;Samples;Min_cycle;Max_cycle;Signal;HPM_P1;HPM_P2
2023/08/28 00:02:20;;;;;;;0.90;0.80;;;16.80;99.90;;;;;;4957125;28;20041;-18
2023/08/28 00:04:46;;;;;;;0.80;0.80;;;16.80;99.90;;;;;;4879666;28;20758;-19
2023/08/28 00:07:13;;;;;;;1.02;0.93;;;16.70;99.90;;;;;;4894833;28;20043;-20
2023/08/28 00:09:39;;;;;;;0.70;0.70;;;16.70;99.90;;;;;;4885596;28;20104;-19
2023/08/28 00:12:05;;;;;;;0.90;0.80;;;16.00;99.90;;;;;;4959883;28;20767;-19
2023/08/28 00:14:31;;;;;;;1.17;0.77;;;16.60;99.90;;;;;;4970209;28;20490;-20
2023/08/28 00:16:57;;;;;;;0.93;0.77;;;16.60;99.90;;;;;;4890927;28;20031;-19
2023/08/28 00:19:23;;;;;;;1.33;0.80;;;16.60;99.90;;;;;;4873171;28;20025;-20
2023/08/28 00:21:49;;;;;;;1.20;0.97;;;18.80;99.90;;;;;;4967084;28;20457;-19
2023/08/28 00:24:15;;;;;;;1.08;0.98;;;16.50;99.90;;;;;;4968574;28;20089;-20
2023/08/28 00:26:40;;;;;;;1.23;0.98;;;16.50;99.90;;;;;;4899021;28;20511;-19
2023/08/28 00:29:06;;;;;;;0.90;0.80;;;16.50;99.90;;;;;;4879431;28;20130;-19
2023/08/28 00:31:32;;;;;;;1.05;0.88;;;16.40;99.90;;;;;;4884805;28;20047;-22
2023/08/28 00:33:57;;;;;;;1.00;0.80;;;16.40;99.90;;;;;;4876395;28;20082;-19
2023/08/28 00:36:23;;;;;;;1.00;0.90;;;16.40;99.90;;;;;;4967631;28;20032;-20
2023/08/28 00:38:49;;;;;;;0.80;0.80;;;16.30;99.90;;;;;;4894891;28;20046;-19
2023/08/28 00:41:15;;;;;;;0.82;0.82;;;16.30;99.90;;;;;;4913230;28;20237;-21
2023/08/28 00:43:40;;;;;;;1.07;0.90;;;16.30;99.90;;;;;;4949640;28;20104;-20
2023/08/28 00:46:06;;;;;;;1.40;0.80;;;16.30;99.90;;;;;;4884127;28;20296;-19
2023/08/28 00:48:32;;;;;;;0.98;0.80;;;16.30;99.90;;;;;;4898220;28;20039;-19
2023/08/28 00:51:00;;;;;;;1.17;0.90;;;16.30;99.90;;;;;;4936149;28;20528;-19
2023/08/28 00:53:26;;;;;;;1.08;0.90;;;16.30;99.90;;;;;;4894115;28;20020;-19
2023/08/28 00:55:53;;;;;;;1.17;0.90;;;16.20;99.90;;;;;;4886968;28;20032;-20
2023/08/28 00:58:20;;;;;;;0.90;0.80;;;16.20;99.90;;;;;;4952691;28;20681;-19
2023/08/28 01:00:46;;;;;;;1.25;1.00;;;16.20;99.90;;;;;;4960600;28;20096;-19
2023/08/28 01:03:12;;;;;;;1.30;1.00;;;16.20;99.90;;;;;;4926364;23;20057;-22
2023/08/28 01:05:50;;;;;;;0.98;0.88;;;16.20;99.90;;;;;;4950472;28;20175;-21
2023/08/28 01:08:19;;;;;;;0.90;0.90;;;16.20;99.90;;;;;;4967503;28;20033;-22
2023/08/28 01:10:52;;;;;;;1.58;0.80;;;16.20;99.90;;;;;;4974933;28;20030;-21
2023/08/28 01:13:36;;;;;;;0.90;0.80;;;15.70;99.90;;;;;;4946672;28;20458;-22
2023/08/28 01:16:04;;;;;;;1.65;0.90;;;16.10;99.90;;;;;;4960596;28;20124;-21
2023/08/28 01:18:30;;;;;;;0.80;0.80;;;18.00;99.90;;;;;;4963845;28;20022;-23
2023/08/28 01:20:58;;;;;;;1.00;0.90;;;16.10;99.90;;;;;;4956151;28;20161;-26
2023/08/28 01:23:36;;;;;;;1.45;0.80;;;16.10;99.90;;;;;;4972189;28;20039;-22
2023/08/28 01:26:02;;;;;;;1.13;1.00;;;16.10;99.90;;;;;;4968821;28;20027;-23
2023/08/28 01:28:28;;;;;;;0.88;0.85;;;15.70;99.90;;;;;;4955280;28;20183;-21
2023/08/28 01:30:54;;;;;;;0.80;0.80;;;16.10;99.90;;;;;;4973386;28;20014;-21
2023/08/28 01:33:20;;;;;;;1.73;0.93;;;16.00;99.90;;;;;;4963408;28;20068;-21
2023/08/28 01:36:16;;;;;;;1.10;1.00;;;16.10;99.90;;;;;;4951163;28;20526;-23
2023/08/28 01:38:58;;;;;;;1.00;0.90;;;16.00;99.90;;;;;;4972326;28;20046;-21
2023/08/28 01:41:25;;;;;;;1.23;0.97;;;16.00;99.90;;;;;;4943887;28;20423;-21
2023/08/28 01:43:56;;;;;;;0.90;0.80;;;16.00;99.90;;;;;;4974994;28;20506;-22
2023/08/28 01:46:22;;;;;;;1.42;0.80;;;15.90;99.90;;;;;;4958071;28;20033;-24
2023/08/28 01:48:53;;;;;;;1.48;0.85;;;15.90;99.90;;;;;;4963729;28;20038;-22
2023/08/28 01:51:20;;;;;;;0.80;0.80;;;15.90;99.90;;;;;;4951321;28;20026;-21
2023/08/28 01:53:47;;;;;;;1.03;0.87;;;15.80;99.90;;;;;;4959264;28;20059;-21
2023/08/28 01:56:19;;;;;;;1.00;0.80;;;15.80;99.90;;;;;;4965137;28;20840;-21
2023/08/28 01:58:51;;;;;;;1.10;0.90;;;15.80;99.90;;;;;;4975637;28;20027;-22
2023/08/28 02:01:17;;;;;;;0.93;0.80;;;15.80;99.90;;;;;;4960194;28;20022;-21
2023/08/28 02:03:43;;;;;;;0.80;0.80;;;15.80;99.90;;;;;;4968471;28;20053;-21
2023/08/28 02:06:09;;;;;;;1.00;0.90;;;15.80;99.90;;;;;;4952504;28;20080;-22
2023/08/28 02:08:36;;;;;;;1.00;0.90;;;15.70;99.90;;;;;;4960417;28;20549;-22
2023/08/28 02:11:02;;;;;;;1.70;1.00;;;15.70;99.90;;;;;;4967912;28;20634;-22
2023/08/28 02:13:29;;;;;;;1.02;0.90;;;15.70;99.90;;;;;;4979545;28;20037;-19
2023/08/28 02:15:55;;;;;;;1.17;1.00;;;15.60;99.90;;;;;;4961059;28;20056;-19
2023/08/28 02:18:21;;;;;;;0.88;0.80;;;15.60;99.90;;;;;;4980014;28;20043;-19
2023/08/28 02:20:48;;;;;;;1.00;0.90;;;15.60;99.90;;;;;;4948521;28;20181;-19
2023/08/28 02:23:14;;;;;;;1.20;0.90;;;15.60;99.90;;;;;;4957756;28;20285;-19
2023/08/28 02:25:45;;;;;;;1.30;0.90;;;15.60;99.90;;;;;;4944574;28;20035;-20
2023/08/28 02:28:11;;;;;;;1.20;0.90;;;15.50;99.90;;;;;;4972001;28;20471;-19
2023/08/28 02:30:37;;;;;;;1.13;1.02;;;15.50;99.90;;;;;;4969524;28;20022;-21
2023/08/28 02:33:03;;;;;;;1.77;1.00;;;15.50;99.90;;;;;;4949915;28;20561;-20
2023/08/28 02:35:29;;;;;;;1.00;0.80;;;15.50;99.90;;;;;;4962050;28;20610;-21
2023/08/28 02:37:54;;;;;;;0.90;0.80;;;15.50;99.90;;;;;;4920240;28;20217;-19
2023/08/28 02:40:20;;;;;;;1.50;0.73;;;15.50;99.90;;;;;;4977335;28;20034;-19
2023/08/28 02:42:46;;;;;;;1.10;1.00;;;15.50;99.90;;;;;;4966740;28;20034;-20
2023/08/28 02:45:12;;;;;;;1.27;0.97;;;15.50;99.90;;;;;;4979758;28;20518;-20
2023/08/28 02:47:37;;;;;;;1.98;1.10;;;15.50;99.90;;;;;;4961201;28;20072;-20
2023/08/28 02:50:06;;;;;;;1.43;1.10;;;15.50;99.90;;;;;;4959857;28;20225;-19
2023/08/28 02:52:32;;;;;;;1.50;1.00;;;15.50;99.90;;;;;;4960356;28;20594;-20
2023/08/28 02:54:58;;;;;;;1.20;0.93;;;15.50;99.90;;;;;;4961419;28;20228;-19
2023/08/28 02:57:23;;;;;;;1.30;1.10;;;15.50;99.90;;;;;;4953802;28;20522;-19
2023/08/28 02:59:49;;;;;;;1.45;1.10;;;15.60;99.90;;;;;;4968575;28;20029;-19
2023/08/28 03:02:15;;;;;;;1.90;0.87;;;15.60;99.90;;;;;;4957566;28;20821;-19
2023/08/28 03:04:43;;;;;;;1.95;1.10;;;15.60;99.90;;;;;;4975549;28;20033;-20
2023/08/28 03:07:09;;;;;;;2.05;1.10;;;15.60;99.90;;;;;;4965621;28;20073;-19
2023/08/28 03:09:35;;;;;;;1.30;1.10;;;15.60;99.90;;;;;;4951500;28;20558;-21
2023/08/28 03:12:00;;;;;;;1.77;1.00;;;15.60;99.90;;;;;;4974672;28;20650;-20
2023/08/28 03:14:26;;;;;;;1.10;0.90;;;15.70;99.90;;;;;;4967744;28;20050;-20
2023/08/28 03:16:52;;;;;;;1.13;0.90;;;15.70;99.90;;;;;;4949528;28;20282;-19
2023/08/28 03:19:18;;;;;;;1.67;1.10;;;15.70;99.90;;;;;;4963894;28;20019;-19
2023/08/28 03:21:44;;;;;;;2.38;1.02;;;15.70;99.90;;;;;;4957940;28;20026;-19
2023/08/28 03:24:09;;;;;;;1.52;1.00;;;15.80;99.90;;;;;;4951693;28;20566;-19
2023/08/28 03:26:35;;;;;;;1.23;0.90;;;15.80;99.90;;;;;;4951568;28;20464;-21
2023/08/28 03:29:01;;;;;;;1.45;1.10;;;15.80;99.90;;;;;;4965263;28;20077;-20
2023/08/28 03:31:29;;;;;;;0.90;0.90;;;15.90;99.90;;;;;;4972364;28;20617;-19
2023/08/28 03:33:54;;;;;;;1.27;1.00;;;15.90;99.90;;;;;;4956902;28;20034;-19
2023/08/28 03:36:20;;;;;;;1.27;1.10;;;15.90;99.90;;;;;;4977110;28;20026;-20
2023/08/28 03:38:46;;;;;;;1.10;1.00;;;15.90;99.90;;;;;;4947049;28;20324;-20
2023/08/28 03:41:11;;;;;;;1.48;1.08;;;16.00;99.90;;;;;;4935569;28;20030;-20
2023/08/28 03:43:37;;;;;;;1.10;1.00;;;16.00;99.90;;;;;;4954123;28;20026;-21
2023/08/28 03:46:03;;;;;;;1.23;0.93;;;16.00;99.90;;;;;;4964427;28;20035;-19
2023/08/28 03:48:29;;;;;;;1.20;1.10;;;16.00;99.90;;;;;;4961280;28;20546;-20
2023/08/28 03:50:55;;;;;;;1.30;1.10;;;16.00;99.90;;;;;;4961020;28;20289;-20
2023/08/28 03:53:21;;;;;;;2.72;1.10;;;16.10;99.90;;;;;;4952547;28;20038;-18
2023/08/28 03:55:46;;;;;;;1.30;1.00;;;16.10;99.90;;;;;;4972892;28;20056;-20
2023/08/28 03:58:12;;;;;;;2.47;1.10;;;16.10;99.90;;;;;;4952108;28;20640;-18
2023/08/28 04:00:41;;;;;;;1.30;1.10;;;16.10;99.90;;;;;;4948989;28;20032;-20
2023/08/28 04:03:07;;;;;;;1.20;1.10;;;16.10;99.90;;;;;;4952161;28;20038;-19
2023/08/28 04:05:38;;;;;;;2.08;1.30;;;16.10;99.90;;;;;;4970728;28;20033;-20
2023/08/28 04:08:04;;;;;;;1.87;1.20;;;16.10;99.90;;;;;;4947205;28;20030;-21
2023/08/28 04:10:30;;;;;;;1.20;1.10;;;16.20;99.90;;;;;;4966384;28;20046;-21
2023/08/28 04:12:55;;;;;;;1.33;1.13;;;16.20;99.90;;;;;;4952842;28;20129;-19
2023/08/28 04:15:21;;;;;;;2.13;1.27;;;16.10;99.90;;;;;;4965156;28;20212;-19
2023/08/28 04:17:47;;;;;;;2.55;1.13;;;16.20;99.90;;;;;;4966856;28;20042;-21
2023/08/28 04:20:14;;;;;;;2.07;1.30;;;16.20;99.90;;;;;;4958351;28;20031;-20
2023/08/28 04:22:44;;;;;;;2.45;1.35;;;16.20;99.90;;;;;;4960696;28;20035;-21
2023/08/28 04:25:11;;;;;;;2.35;1.25;;;16.20;99.90;;;;;;4947513;28;20022;-19
2023/08/28 04:27:38;;;;;;;1.58;1.10;;;16.20;99.90;;;;;;4962542;28;20053;-22
2023/08/28 04:30:05;;;;;;;1.45;1.30;;;16.20;99.90;;;;;;4958039;28;20042;-19
2023/08/28 04:32:31;;;;;;;2.40;1.30;;;16.20;99.90;;;;;;4978984;28;20041;-20
2023/08/28 04:34:56;;;;;;;1.90;1.20;;;16.30;99.90;;;;;;4969306;28;20646;-20
2023/08/28 04:37:26;;;;;;;2.40;1.20;;;16.30;99.90;;;;;;4964430;28;20026;-18
2023/08/28 04:39:52;;;;;;;1.57;1.20;;;16.30;99.90;;;;;;4973595;28;20701;-19
2023/08/28 04:42:18;;;;;;;1.85;1.30;;;16.00;99.90;;;;;;4966869;28;20038;-20
2023/08/28 04:44:44;;;;;;;1.85;1.40;;;16.30;99.90;;;;;;4944779;28;20050;-20
2023/08/28 04:47:09;;;;;;;1.53;1.27;;;16.30;99.90;;;;;;4976436;28;20938;-20
2023/08/28 04:49:35;;;;;;;1.60;1.30;;;16.30;99.90;;;;;;4971914;28;20270;-20
2023/08/28 04:52:02;;;;;;;2.47;1.50;;;16.30;99.90;;;;;;4962601;28;20599;-19
2023/08/28 04:54:28;;;;;;;2.40;1.40;;;16.30;99.90;;;;;;4976859;28;20491;-20
2023/08/28 04:56:56;;;;;;;1.70;1.20;;;16.30;99.90;;;;;;4962485;28;20251;-20
2023/08/28 04:59:21;;;;;;;2.42;1.40;;;16.30;99.90;;;;;;4952299;28;20477;-19
2023/08/28 05:01:47;;;;;;;2.00;1.30;;;16.90;99.90;;;;;;4962308;28;20022;-19
2023/08/28 05:04:13;;;;;;;2.00;1.43;;;16.30;99.90;;;;;;4943458;28;20289;-19
2023/08/28 05:06:38;;;;;;;2.25;1.30;;;16.40;99.90;;;;;;4955085;28;20487;-20
2023/08/28 05:09:04;;;;;;;2.33;1.40;;;16.40;99.90;;;;;;4962106;28;20144;-18
2023/08/28 05:11:30;;;;;;;1.73;1.27;;;16.40;99.90;;;;;;4953719;28;20085;-20
2023/08/28 05:13:56;;;;;;;1.90;1.40;;;16.40;99.90;;;;;;4969623;28;20588;-19
2023/08/28 05:16:22;;;;;;;1.80;1.40;;;16.40;99.90;;;;;;4940243;28;20573;-19
2023/08/28 05:18:48;;;;;;;2.03;1.50;;;16.40;99.90;;;;;;4952206;28;20753;-19
2023/08/28 05:21:13;;;;;;;3.60;1.40;;;16.40;99.90;;;;;;4959243;28;20029;-20
2023/08/28 05:23:40;;;;;;;1.50;1.30;;;16.40;99.90;;;;;;4925888;28;20928;-18
2023/08/28 05:26:06;;;;;;;2.92;1.30;;;16.50;99.90;;;;;;4972096;28;20030;-22
2023/08/28 05:28:35;;;;;;;1.80;1.50;;;16.50;99.90;;;;;;4961049;28;20022;-20
2023/08/28 05:31:02;;;;;;;2.13;1.42;;;16.40;99.90;;;;;;4951155;28;20560;-22
2023/08/28 05:33:28;;;;;;;2.15;1.50;;;16.50;99.90;;;;;;4959765;28;20472;-19
2023/08/28 05:35:54;;;;;;;2.27;1.40;;;16.50;99.90;;;;;;4967827;28;20093;-19
2023/08/28 05:38:20;;;;;;;2.00;1.20;;;16.50;99.90;;;;;;4960055;28;20703;-20
2023/08/28 05:40:46;;;;;;;2.20;1.50;;;16.60;99.90;;;;;;4977554;28;20062;-20
2023/08/28 05:43:11;;;;;;;3.40;1.60;;;16.60;99.90;;;;;;4965649;28;20153;-21
2023/08/28 05:45:37;;;;;;;2.17;1.30;;;16.60;99.90;;;;;;4933409;28;20297;-23
2023/08/28 05:48:03;;;;;;;2.13;1.45;;;16.60;99.90;;;;;;4968288;28;20081;-24
2023/08/28 05:50:29;;;;;;;1.80;1.50;;;16.70;99.90;;;;;;4963661;28;20582;-22
2023/08/28 05:52:55;;;;;;;1.80;1.40;;;16.70;99.90;;;;;;4978609;28;20038;-22
2023/08/28 05:55:21;;;;;;;2.90;1.60;;;16.70;99.90;;;;;;4928043;28;20317;-22
2023/08/28 05:57:47;;;;;;;2.55;1.52;;;16.70;99.90;;;;;;4967195;28;20558;-22
2023/08/28 06:00:14;;;;;;;1.70;1.27;;;16.80;99.90;;;;;;4973635;28;20034;-24
2023/08/28 06:02:41;;;;;;;4.40;2.33;;;16.80;99.90;;;;;;4956106;28;20046;-22
2023/08/28 06:05:07;;;;;;;2.30;1.38;;;16.80;99.90;;;;;;4962330;28;20052;-21
2023/08/28 06:07:35;;;;;;;1.77;1.40;;;16.80;99.90;;;;;;4972411;28;20336;-21
2023/08/28 06:10:02;;;;;;;1.83;1.50;;;16.80;99.90;;;;;;4963507;28;20065;-21
2023/08/28 06:12:28;;;;;;;2.40;1.50;;;16.90;99.90;;;;;;4966862;28;20037;-23
2023/08/28 06:14:54;;;;;;;2.95;1.65;;;16.90;99.90;;;;;;4968166;28;20022;-21
2023/08/28 06:17:21;;;;;;;2.60;1.77;;;17.00;99.90;;;;;;4938805;28;20304;-23
2023/08/28 06:19:49;;;;;;;2.33;1.40;;;17.00;99.90;;;;;;4950970;28;20026;-22
2023/08/28 06:22:14;;;;;;;1.75;1.48;;;17.00;99.90;;;;;;4965713;28;20125;-21
2023/08/28 06:24:40;;;;;;;2.25;1.50;;;17.10;99.90;;;;;;4980048;28;20049;-22
2023/08/28 06:27:06;;;;;;;2.20;1.57;;;17.10;99.90;;;;;;4959205;28;20278;-23
2023/08/28 06:29:31;;;;;;;2.72;1.60;;;17.20;99.90;;;;;;4964925;28;20617;-22
2023/08/28 06:31:57;;;;;;;3.03;1.60;;;17.20;99.90;;;;;;4974832;28;20786;-22
2023/08/28 06:34:23;;;;;;;2.70;1.70;;;17.30;99.90;;;;;;4954446;28;20092;-22
2023/08/28 06:36:51;;;;;;;2.15;1.67;;;17.30;99.90;;;;;;4958250;28;20033;-22
2023/08/28 06:39:18;;;;;;;2.38;1.63;;;18.30;99.90;;;;;;4956704;28;20061;-22
2023/08/28 06:41:43;;;;;;;1.57;1.30;;;17.50;99.90;;;;;;4942955;28;20400;-23
2023/08/28 06:44:09;;;;;;;2.03;1.52;;;17.50;99.90;;;;;;4968253;28;20033;-22
2023/08/28 06:46:36;;;;;;;2.40;1.60;;;17.60;99.90;;;;;;4944667;28;20265;-23
2023/08/28 06:49:02;;;;;;;2.10;1.53;;;17.60;99.90;;;;;;4954123;28;20578;-24
2023/08/28 06:51:28;;;;;;;3.15;1.60;;;17.70;99.90;;;;;;4934721;28;20037;-23
2023/08/28 06:53:54;;;;;;;3.13;1.90;;;17.70;99.90;;;;;;4965424;28;20038;-25
2023/08/28 06:56:20;;;;;;;2.97;1.90;;;17.80;99.90;;;;;;4962969;28;20054;-21
2023/08/28 06:58:46;;;;;;;2.95;1.90;;;17.80;99.90;;;;;;4961365;28;20286;-20
2023/08/28 07:01:12;;;;;;;2.60;1.80;;;17.90;99.90;;;;;;4948204;28;20225;-20
2023/08/28 07:03:38;;;;;;;2.60;1.88;;;17.90;99.90;;;;;;4978384;28;20046;-18
2023/08/28 07:06:04;;;;;;;2.70;1.80;;;18.00;99.90;;;;;;4943028;28;20310;-21
2023/08/28 07:08:30;;;;;;;2.60;1.98;;;18.00;99.90;;;;;;4966541;28;20618;-19
2023/08/28 07:10:56;;;;;;;3.03;1.63;;;18.10;99.90;;;;;;4970602;28;20522;-21
2023/08/28 07:13:21;;;;;;;3.60;2.10;;;18.10;99.90;;;;;;4963713;28;20302;-19
2023/08/28 07:15:47;;;;;;;2.40;1.70;;;18.20;99.90;;;;;;4948739;28;20506;-20
2023/08/28 07:18:13;;;;;;;2.67;2.03;;;18.60;99.90;;;;;;4965124;28;20038;-19
2023/08/28 07:20:39;;;;;;;3.10;2.08;;;18.40;99.90;;;;;;4959561;28;20148;-20
2023/08/28 07:23:05;;;;;;;3.50;2.00;;;18.40;99.90;;;;;;4959159;28;20316;-21
2023/08/28 07:25:31;;;;;;;3.27;2.07;;;18.50;99.90;;;;;;4979070;28;20481;-20
2023/08/28 07:27:57;;;;;;;2.72;1.80;;;18.70;99.90;;;;;;4959839;28;20038;-21
2023/08/28 07:30:23;;;;;;;4.03;2.28;;;18.60;99.90;;;;;;4950601;28;20129;-20
2023/08/28 07:32:48;;;;;;;2.83;1.83;;;18.70;99.90;;;;;;4933024;28;20034;-20
2023/08/28 07:35:14;;;;;;;3.07;1.90;;;18.70;99.90;;;;;;4979970;28;20270;-20
2023/08/28 07:37:40;;;;;;;3.42;2.15;;;18.80;99.90;;;;;;4943246;28;20389;-20
2023/08/28 07:40:07;;;;;;;3.33;1.90;;;18.80;99.90;;;;;;4965443;28;20034;-19
2023/08/28 07:42:33;;;;;;;3.20;2.15;;;18.90;99.90;;;;;;4962463;28;20030;-20
2023/08/28 07:44:59;;;;;;;2.10;1.73;;;19.00;99.90;;;;;;4971373;28;20057;-22
2023/08/28 07:47:25;;;;;;;3.17;1.88;;;19.10;99.90;;;;;;4969137;28;20027;-19
2023/08/28 07:49:51;;;;;;;3.88;2.00;;;19.20;99.90;;;;;;4966167;28;20499;-19
2023/08/28 07:52:17;;;;;;;2.97;2.17;;;19.30;99.90;;;;;;4956126;28;20042;-19
2023/08/28 07:54:43;;;;;;;3.00;1.90;;;19.40;99.90;;;;;;4963017;28;20132;-21
2023/08/28 07:57:09;;;;;;;2.50;1.90;;;19.50;99.90;;;;;;4978024;28;20737;-19
2023/08/28 07:59:34;;;;;;;2.65;1.98;;;19.70;99.90;;;;;;4956453;28;20030;-19
2023/08/28 08:02:01;;;;;;;2.40;1.73;;;19.80;99.90;;;;;;4966302;28;20053;-19
2023/08/28 08:04:27;;;;;;;3.20;1.90;;;19.90;99.90;;;;;;4969971;28;20396;-19
2023/08/28 08:06:53;;;;;;;3.08;2.10;;;20.20;99.90;;;;;;4948069;28;27934;-19
2023/08/28 08:09:18;;;;;;;4.97;1.90;;;20.30;99.90;;;;;;4961459;28;20034;-20
2023/08/28 08:11:44;;;;;;;2.07;1.70;;;20.50;99.90;;;;;;4961578;28;20046;-19
2023/08/28 08:14:11;;;;;;;2.60;1.83;;;20.60;99.90;;;;;;4963746;28;20446;-19
2023/08/28 08:16:37;;;;;;;2.83;2.13;;;20.80;99.90;;;;;;4965108;28;20101;-21
2023/08/28 08:19:03;;;;;;;3.30;2.00;;;20.90;99.90;;;;;;4952045;28;20140;-19
2023/08/28 08:21:29;;;;;;;3.20;1.83;;;21.00;99.90;;;;;;4964340;28;20028;-22
2023/08/28 08:23:55;;;;;;;2.55;1.60;;;21.00;99.90;;;;;;4927376;28;20681;-18
2023/08/28 08:26:21;;;;;;;2.70;1.80;;;21.10;99.90;;;;;;4948905;28;20022;-20
2023/08/28 08:28:47;;;;;;;1.83;1.50;;;21.20;99.90;;;;;;4960092;28;20243;-19
2023/08/28 08:31:13;;;;;;;2.33;1.60;;;21.40;99.90;;;;;;4972342;28;20068;-19
2023/08/28 08:33:38;;;;;;;2.47;1.60;;;21.50;99.90;;;;;;4966129;28;20030;-20
2023/08/28 08:36:05;;;;;;;2.25;1.60;;;21.70;99.90;;;;;;4968028;28;20478;-19
2023/08/28 08:38:31;;;;;;;2.67;1.55;;;21.80;99.90;;;;;;4919740;28;20056;-21
2023/08/28 08:41:01;;;;;;;2.60;1.40;;;21.90;99.90;;;;;;4945894;28;20038;-16
2023/08/28 08:43:28;;;;;;;2.08;1.55;;;22.00;99.90;;;;;;4959931;28;20411;-18
2023/08/28 08:46:05;;;;;;;3.03;1.70;;;22.20;99.90;;;;;;4953655;28;20622;-16
2023/08/28 08:48:34;;;;;;;2.55;1.80;;;22.40;99.90;;;;;;4967262;28;20200;-18
2023/08/28 08:51:05;;;;;;;2.10;1.53;;;22.60;99.90;;;;;;4976170;28;20423;-17
2023/08/28 08:53:48;;;;;;;2.05;1.50;;;22.80;99.90;;;;;;4956331;28;20030;-19
2023/08/28 08:56:17;;;;;;;3.35;1.38;;;23.00;99.90;;;;;;4955097;28;20137;-19
2023/08/28 08:58:43;;;;;;;3.28;1.95;;;23.20;99.90;;;;;;4964445;28;20459;-18
2023/08/28 09:01:09;;;;;;;5.65;3.70;;;23.40;99.90;;;;;;4953749;28;20053;-17
2023/08/28 09:03:38;;;;;;;3.20;2.20;;;23.60;99.90;;;;;;4951872;28;20360;-19
2023/08/28 09:06:06;;;;;;;3.78;2.28;;;23.70;99.90;;;;;;4952237;28;20046;-17
2023/08/28 09:08:34;;;;;;;1.92;1.60;;;23.90;99.90;;;;;;4959732;28;20034;-20
2023/08/28 09:11:00;;;;;;;2.55;1.70;;;24.20;99.90;;;;;;4948908;28;20748;-20
2023/08/28 09:13:27;;;;;;;2.75;1.60;;;24.60;99.90;;;;;;4962002;28;20026;-18
2023/08/28 09:15:52;;;;;;;2.07;1.40;;;24.90;99.90;;;;;;4929594;28;21126;-20
2023/08/28 09:18:19;;;;;;;2.40;1.17;;;25.20;99.90;;;;;;4935953;28;20582;-21
2023/08/28 09:21:06;;;;;;;2.50;1.20;;;25.50;99.90;;;;;;4944773;28;20085;-21
2023/08/28 09:23:32;;;;;;;2.53;1.35;;;25.90;99.90;;;;;;4972796;28;20025;-20
2023/08/28 09:25:59;;;;;;;1.77;1.10;;;26.10;99.90;;;;;;4944160;28;20045;-21
2023/08/28 09:28:26;;;;;;;2.22;1.38;;;26.30;99.90;;;;;;4964294;28;20015;-21
2023/08/28 09:30:52;;;;;;;1.30;1.20;;;26.50;99.90;;;;;;4961323;28;20117;-20
2023/08/28 09:33:18;;;;;;;1.27;1.15;;;26.80;99.90;;;;;;4960345;28;20081;-22
2023/08/28 09:35:44;;;;;;;1.43;1.10;;;27.10;99.90;;;;;;4945337;28;20057;-20
2023/08/28 09:38:10;;;;;;;2.22;1.20;;;27.30;99.90;;;;;;4974245;28;20671;-22
2023/08/28 09:40:39;;;;;;;1.98;1.23;;;27.40;99.90;;;;;;4963775;28;20058;-24
2023/08/28 09:43:20;;;;;;;3.03;1.70;;;27.40;99.90;;;;;;4947667;28;20030;-20
2023/08/28 09:45:46;;;;;;;2.10;1.10;;;27.40;99.90;;;;;;4965856;28;20113;-24
2023/08/28 09:48:12;;;;;;;1.80;1.40;;;27.40;99.90;;;;;;4956012;28;20080;-20
2023/08/28 09:50:42;;;;;;;1.23;1.05;;;27.40;99.90;;;;;;4975173;28;20015;-21
2023/08/28 09:53:15;;;;;;;1.20;1.10;;;27.40;99.90;;;;;;4962858;28;20092;-24
2023/08/28 09:55:51;;;;;;;1.30;1.20;;;27.50;99.90;;;;;;4958325;28;20256;-20
2023/08/28 09:58:18;;;;;;;1.65;1.20;;;27.50;99.90;;;;;;4946108;28;20620;-21
2023/08/28 10:00:45;;;;;;;1.40;1.30;;;27.70;99.90;;;;;;4967127;28;20030;-21
2023/08/28 10:03:12;;;;;;;2.42;1.23;;;27.70;99.90;;;;;;4914192;28;23278;-21
2023/08/28 10:05:43;;;;;;;2.43;1.20;;;27.90;99.90;;;;;;4976300;28;20030;-22
2023/08/28 10:08:11;;;;;;;2.40;1.58;;;27.90;99.90;;;;;;4977484;22;20079;-22
2023/08/28 10:10:38;;;;;;;2.83;1.80;;;28.00;99.90;;;;;;4951289;28;20050;-22
2023/08/28 10:13:13;;;;;;;1.75;1.45;;;28.20;99.90;;;;;;4937241;28;20032;-22
2023/08/28 10:15:51;;;;;;;1.90;1.60;;;28.40;99.90;;;;;;4888900;29;20719;-22
2023/08/28 10:18:24;;;;;;;1.70;1.50;;;28.70;99.90;;;;;;4900731;28;20115;-22
2023/08/28 10:20:50;;;;;;;1.70;1.60;;;29.10;99.90;;;;;;4874500;28;20024;-22
2023/08/28 10:23:18;;;;;;;2.72;1.77;;;29.50;99.90;;;;;;4902567;29;20158;-22
2023/08/28 10:25:47;;;;;;;2.75;1.73;;;29.80;99.90;;;;;;4882700;28;20408;-22
2023/08/28 10:28:14;;;;;;;1.88;1.65;;;30.30;99.90;;;;;;4900751;28;20388;-20
2023/08/28 10:30:41;;;;;;;2.07;1.50;;;30.60;99.90;;;;;;4877901;28;20032;-22
2023/08/28 10:33:12;;;;;;;1.95;1.40;;;31.00;99.90;;;;;;4965055;28;20037;-21
2023/08/28 10:35:40;;;;;;;1.88;1.48;;;31.20;99.90;;;;;;4883740;28;20032;-21
2023/08/28 10:38:06;;;;;;;2.15;1.35;;;31.30;99.90;;;;;;4899786;28;20149;-20
2023/08/28 10:40:33;;;;;;;2.00;1.27;;;31.20;99.90;;;;;;4956363;28;20048;-21
2023/08/28 10:43:00;;;;;;;1.83;1.40;;;31.00;99.40;;;;;;4888344;28;20032;-21
2023/08/28 10:45:26;;;;;;;2.33;1.30;;;30.70;98.70;;;;;;4876319;28;20036;-21
2023/08/28 10:47:51;;;;;;;1.52;1.20;;;30.50;98.40;;;;;;4954925;28;20077;-21
2023/08/28 10:50:18;;;;;;;1.70;1.10;;;30.00;98.20;;;;;;4903142;29;20712;-19
2023/08/28 10:52:46;;;;;;;1.10;1.00;;;29.70;98.00;;;;;;4884181;28;20064;-21
2023/08/28 10:55:18;;;;;;;0.98;0.85;;;29.30;96.90;;;;;;4898796;29;20034;-19
2023/08/28 10:57:49;;;;;;;1.17;1.05;;;28.90;96.40;;;;;;4953761;28;20025;-21
2023/08/28 11:00:18;;;;;;;1.00;0.80;;;28.50;96.10;;;;;;4877372;28;20024;-22
2023/08/28 11:03:17;;;;;;;1.33;0.90;;;28.20;98.20;;;;;;4963600;28;20237;-19
2023/08/28 11:05:44;;;;;;;0.80;0.70;;;27.80;95.20;;;;;;4933413;28;20125;-20
2023/08/28 11:08:11;;;;;;;1.23;1.00;;;26.70;97.00;;;;;;4877243;28;20052;-22
2023/08/28 11:10:41;;;;;;;2.08;1.10;;;27.40;99.60;;;;;;4877085;28;20044;-20
2023/08/28 11:13:08;;;;;;;1.67;1.00;;;27.30;99.90;;;;;;4873248;29;20036;-21
2023/08/28 11:15:42;;;;;;;2.45;1.00;;;27.20;99.90;;;;;;4856355;28;20231;-20
2023/08/28 11:18:24;;;;;;;1.50;1.10;;;27.00;98.70;;;;;;4883636;28;20040;-20
2023/08/28 11:20:55;;;;;;;1.25;1.15;;;27.00;98.40;;;;;;4881642;28;20056;-20
2023/08/28 11:23:25;;;;;;;1.25;0.98;;;26.90;99.90;;;;;;4868639;28;20592;-22
2023/08/28 11:25:52;;;;;;;1.25;1.10;;;26.90;99.90;;;;;;4886436;28;20040;-20
2023/08/28 11:28:32;;;;;;;1.13;0.90;;;26.90;99.90;;;;;;4870487;28;20032;-22
2023/08/28 11:31:07;;;;;;;1.83;1.00;;;27.00;99.30;;;;;;4859664;28;20060;-20
2023/08/28 11:33:51;;;;;;;1.70;1.10;;;27.00;99.90;;;;;;4877968;29;20461;-21
2023/08/28 11:36:18;;;;;;;1.10;1.00;;;27.10;99.50;;;;;;4875328;28;20040;-22
2023/08/28 11:38:48;;;;;;;1.25;1.15;;;27.30;99.90;;;;;;4878882;28;20485;-22
2023/08/28 11:41:15;;;;;;;1.92;1.17;;;27.40;99.90;;;;;;4951135;28;20502;-22
2023/08/28 11:43:42;;;;;;;1.30;1.17;;;27.60;99.90;;;;;;4871846;29;20087;-22
2023/08/28 11:46:11;;;;;;;1.50;1.10;;;27.80;99.90;;;;;;4860145;28;20425;-22
2023/08/28 11:48:48;;;;;;;1.30;1.00;;;27.90;99.90;;;;;;4872776;28;20442;-22
2023/08/28 11:51:14;;;;;;;1.67;1.20;;;27.90;99.90;;;;;;4880235;29;20059;-22
2023/08/28 11:53:41;;;;;;;1.20;1.10;;;28.00;99.90;;;;;;4849550;29;20272;-22
2023/08/28 11:56:10;;;;;;;1.17;1.08;;;28.10;99.90;;;;;;4880410;29;20116;-22
2023/08/28 11:58:37;;;;;;;1.45;1.00;;;28.10;99.90;;;;;;4884808;28;20131;-22
2023/08/28 12:01:12;;;;;;;1.27;1.13;;;28.30;99.90;;;;;;4963054;28;20047;-22
2023/08/28 12:03:39;;;;;;;1.40;1.30;;;28.40;99.90;;;;;;4864966;28;20029;-22
2023/08/28 12:06:12;;;;;;;1.10;1.00;;;28.60;99.90;;;;;;4882207;28;20067;-22
2023/08/28 12:08:40;;;;;;;1.20;1.10;;;28.70;99.90;;;;;;4892521;28;20222;-22
2023/08/28 12:11:07;;;;;;;1.23;1.13;;;28.80;99.90;;;;;;4869788;28;20428;-22
2023/08/28 12:13:37;;;;;;;1.85;1.30;;;28.90;99.90;;;;;;4882150;28;20036;-22
2023/08/28 12:16:19;;;;;;;1.20;1.10;;;29.00;99.90;;;;;;4872149;28;20029;-22
2023/08/28 12:18:53;;;;;;;1.33;1.23;;;29.10;99.20;;;;;;4848051;28;20460;-22
2023/08/28 12:21:34;;;;;;;1.45;1.05;;;29.10;99.90;;;;;;4852598;29;20028;-22
2023/08/28 12:24:00;;;;;;;1.83;1.25;;;29.20;99.90;;;;;;4904690;28;20025;-22
2023/08/28 12:26:26;;;;;;;1.45;1.35;;;29.30;99.90;;;;;;4876715;28;20108;-22
2023/08/28 12:28:55;;;;;;;1.53;1.30;;;29.40;99.90;;;;;;4883601;28;20111;-22
2023/08/28 12:31:30;;;;;;;1.85;1.10;;;29.50;99.90;;;;;;4866103;28;20869;-22
2023/08/28 12:33:56;;;;;;;1.20;1.00;;;29.60;98.30;;;;;;4857818;28;20032;-22
2023/08/28 12:37:05;;;;;;;1.20;1.10;;;29.60;99.90;;;;;;4881055;28;20390;-22
2023/08/28 12:39:31;;;;;;;1.30;1.20;;;29.60;96.80;;;;;;4932682;28;20675;-22
2023/08/28 12:41:57;;;;;;;1.40;1.30;;;29.60;99.90;;;;;;4881141;28;20040;-22
2023/08/28 12:44:23;;;;;;;2.22;1.27;;;29.60;99.90;;;;;;4879877;28;20082;-22
2023/08/28 12:46:53;;;;;;;1.50;1.40;;;29.50;99.50;;;;;;4852571;28;20236;-22
2023/08/28 12:49:22;;;;;;;1.17;1.00;;;29.40;97.70;;;;;;4858788;28;20558;-22
2023/08/28 12:51:49;;;;;;;1.15;1.05;;;29.30;99.00;;;;;;4879569;28;20258;-22